createdAt,value
2023-05-14T00:01:23.812Z,100690.28
2023-05-14T00:03:54.491Z,100688.52
2023-05-14T00:06:25.322Z,100690.73
2023-05-14T00:08:55.757Z,100687.44
2023-05-14T00:11:26.445Z,100686.39
2023-05-14T00:13:56.931Z,100684.48
2023-05-14T00:16:27.552Z,100683.11
2023-05-14T00:18:58.117Z,100680.67
2023-05-14T00:21:28.763Z,100680.67
2023-05-14T00:23:59.383Z,100677.37
2023-05-14T00:26:29.877Z,100675.47
2023-05-14T00:29:00.462Z,100678.19
2023-05-14T00:31:30.985Z,100679.54
2023-05-14T00:34:01.466Z,100677.63
2023-05-14T00:36:32.300Z,100679.83
2023-05-14T00:39:03.763Z,100676.68
2023-05-14T00:41:34.236Z,100677.00
2023-05-14T00:44:05.474Z,100676.47
2023-05-14T00:46:36.202Z,100677.48
2023-05-14T00:49:06.824Z,100676.78
2023-05-14T00:51:38.272Z,100674.34
2023-05-14T00:54:09.308Z,100676.25
2023-05-14T00:56:39.963Z,100676.23
2023-05-14T00:59:10.683Z,100679.31
2023-05-14T01:01:41.531Z,100677.08
2023-05-14T01:04:13.685Z,100678.45
2023-05-14T01:06:55.601Z,100673.63
2023-05-14T01:09:33.588Z,100671.55
2023-05-14T01:12:13.521Z,100673.28
2023-05-14T01:14:53.474Z,100667.59
2023-05-14T01:17:27.922Z,100667.23
2023-05-14T01:19:59.618Z,100665.66
2023-05-14T01:22:30.056Z,100665.48
2023-05-14T01:25:00.646Z,100665.84
2023-05-14T01:27:37.200Z,100664.96
2023-05-14T01:30:15.266Z,100663.39
2023-05-14T01:32:49.884Z,100666.47
2023-05-14T01:35:21.551Z,100669.04
2023-05-14T01:37:54.574Z,100664.55
2023-05-14T01:40:26.539Z,100663.34
2023-05-14T01:42:57.989Z,100663.15
2023-05-14T01:45:28.922Z,100660.05
2023-05-14T01:47:59.622Z,100658.82
2023-05-14T01:50:30.402Z,100656.73
2023-05-14T01:53:01.142Z,100652.58
2023-05-14T01:55:31.860Z,100648.74
2023-05-14T01:58:02.498Z,100656.81
2023-05-14T02:00:33.037Z,100650.25
2023-05-14T02:03:03.593Z,100651.59
2023-05-14T02:05:34.492Z,100649.48
2023-05-14T02:08:05.454Z,100651.33
2023-05-14T02:10:36.481Z,100649.75
2023-05-14T02:13:06.979Z,100649.90
2023-05-14T02:15:37.463Z,100649.66
2023-05-14T02:18:08.495Z,100652.21
2023-05-14T02:20:39.311Z,100647.19
2023-05-14T02:23:09.791Z,100650.41
2023-05-14T02:25:40.341Z,100646.91
2023-05-14T02:28:11.626Z,100643.42
2023-05-14T02:30:42.150Z,100642.36
2023-05-14T02:33:12.674Z,100643.35
2023-05-14T02:35:43.268Z,100638.83
2023-05-14T02:38:13.846Z,100637.76
2023-05-14T02:40:44.290Z,100635.85
2023-05-14T02:43:14.823Z,100634.60
2023-05-14T02:45:45.417Z,100632.50
2023-05-14T02:48:15.886Z,100634.20
2023-05-14T02:50:46.320Z,100636.58
2023-05-14T02:53:16.788Z,100636.05
2023-05-14T02:55:47.350Z,100631.57
2023-05-14T02:58:17.975Z,100633.79
2023-05-14T03:00:48.466Z,100632.41
2023-05-14T03:03:19.816Z,100630.15
2023-05-14T03:05:50.762Z,100629.27
2023-05-14T03:08:21.274Z,100630.27
2023-05-14T03:10:51.707Z,100628.68
2023-05-14T03:13:22.676Z,100629.19
2023-05-14T03:15:55.087Z,100630.39
2023-05-14T03:18:28.439Z,100632.27
2023-05-14T03:20:59.034Z,100631.91
2023-05-14T03:23:31.995Z,100631.56
2023-05-14T03:26:03.866Z,100633.98
2023-05-14T03:28:34.804Z,100637.24
2023-05-14T03:31:05.472Z,100637.06
2023-05-14T03:33:36.172Z,100639.77
2023-05-14T03:36:07.867Z,100640.79
2023-05-14T03:38:38.339Z,100638.87
2023-05-14T03:41:10.028Z,100642.46
2023-05-14T03:43:40.805Z,100641.23
2023-05-14T03:46:11.256Z,100637.27
2023-05-14T03:48:42.643Z,100633.84
2023-05-14T03:51:13.241Z,100635.02
2023-05-14T03:53:43.869Z,100632.77
2023-05-14T03:56:14.396Z,100631.04
2023-05-14T03:58:44.848Z,100630.16
2023-05-14T04:01:15.573Z,100631.30
2023-05-14T04:03:46.302Z,100626.98
2023-05-14T04:06:17.094Z,100627.48
2023-05-14T04:08:47.554Z,100623.17
2023-05-14T04:11:18.041Z,100622.50
2023-05-14T04:13:48.573Z,100625.25
2023-05-14T04:16:19.101Z,100623.34
2023-05-14T04:18:49.699Z,100623.39
2023-05-14T04:21:20.182Z,100624.45
2023-05-14T04:23:51.628Z,100624.31
2023-05-14T04:26:22.476Z,100624.67
2023-05-14T04:28:53.153Z,100625.02
2023-05-14T04:31:23.627Z,100623.31
2023-05-14T04:33:54.344Z,100624.00
2023-05-14T04:36:24.927Z,100623.85
2023-05-14T04:38:56.083Z,100624.37
2023-05-14T04:41:26.562Z,100624.04
2023-05-14T04:43:58.283Z,100620.27
2023-05-14T04:46:28.888Z,100622.31
2023-05-14T04:48:59.532Z,100620.09
2023-05-14T04:51:30.373Z,100620.23
2023-05-14T04:54:00.915Z,100614.93
2023-05-14T04:56:31.455Z,100617.89
2023-05-14T04:59:01.969Z,100618.08
2023-05-14T05:01:32.652Z,100613.98
2023-05-14T05:04:04.307Z,100611.61
2023-05-14T05:06:36.742Z,100609.76
2023-05-14T05:09:08.769Z,100605.79
2023-05-14T05:11:39.893Z,100605.30
2023-05-14T05:14:10.387Z,100603.95
2023-05-14T05:16:40.863Z,100600.02
2023-05-14T05:19:11.380Z,100597.81
2023-05-14T05:21:42.150Z,100596.13
2023-05-14T05:24:13.502Z,100596.49
2023-05-14T05:26:44.020Z,100596.84
2023-05-14T05:29:14.481Z,100595.67
2023-05-14T05:31:44.979Z,100594.86
2023-05-14T05:34:15.894Z,100591.64
2023-05-14T05:36:46.369Z,100586.32
2023-05-14T05:39:16.921Z,100588.92
2023-05-14T05:41:47.375Z,100588.61
2023-05-14T05:44:17.865Z,100589.52
2023-05-14T05:46:48.418Z,100589.55
2023-05-14T05:49:19.095Z,100587.52
2023-05-14T05:51:49.593Z,100589.27
2023-05-14T05:54:20.070Z,100590.36
2023-05-14T05:56:50.580Z,100592.65
2023-05-14T05:59:21.773Z,100593.36
2023-05-14T06:01:52.247Z,100593.91
2023-05-14T06:04:22.717Z,100590.34
2023-05-14T06:06:53.177Z,100590.36
2023-05-14T06:09:23.585Z,100591.41
2023-05-14T06:11:54.048Z,100590.06
2023-05-14T06:14:24.591Z,100587.85
2023-05-14T06:16:55.346Z,100589.08
2023-05-14T06:19:25.943Z,100584.98
2023-05-14T06:21:56.465Z,100584.83
2023-05-14T06:24:26.975Z,100585.17
2023-05-14T06:26:57.502Z,100588.97
2023-05-14T06:29:28.101Z,100587.46
2023-05-14T06:32:02.137Z,100583.72
2023-05-14T06:34:32.771Z,100585.13
2023-05-14T06:37:04.220Z,100584.27
2023-05-14T06:39:34.750Z,100586.87
2023-05-14T06:42:05.483Z,100585.54
2023-05-14T06:44:36.369Z,100585.76
2023-05-14T06:47:08.536Z,100582.68
2023-05-14T06:49:39.529Z,100582.22
2023-05-14T06:52:10.489Z,100580.38
2023-05-14T06:54:40.914Z,100577.34
2023-05-14T06:57:11.488Z,100574.27
2023-05-14T06:59:41.964Z,100565.36
2023-05-14T07:02:13.160Z,100562.46
2023-05-14T07:04:43.754Z,100552.52
2023-05-14T07:07:15.923Z,100554.23
2023-05-14T07:09:46.399Z,100548.06
2023-05-14T07:12:16.968Z,100545.35
2023-05-14T07:14:47.449Z,100543.99
2023-05-14T07:17:18.003Z,100543.64
2023-05-14T07:19:48.533Z,100538.33
2023-05-14T07:22:19.321Z,100540.24
2023-05-14T07:24:50.467Z,100534.58
2023-05-14T07:27:21.017Z,100537.17
2023-05-14T07:29:52.113Z,100534.96
2023-05-14T07:32:22.624Z,100532.39
2023-05-14T07:34:53.093Z,100531.23
2023-05-14T07:37:25.925Z,100529.91
2023-05-14T07:39:56.406Z,100528.75
2023-05-14T07:42:36.063Z,100526.52
2023-05-14T07:45:09.814Z,100524.16
2023-05-14T07:47:40.904Z,100524.55
2023-05-14T07:50:13.153Z,100523.73
2023-05-14T07:52:43.620Z,100522.91
2023-05-14T07:55:15.031Z,100519.83
2023-05-14T07:57:45.676Z,100519.17
2023-05-14T08:00:17.317Z,100519.71
2023-05-14T08:02:49.137Z,100520.07
2023-05-14T08:05:19.986Z,100515.44
2023-05-14T08:07:50.458Z,100514.41
2023-05-14T08:10:21.487Z,100513.38
2023-05-14T08:12:52.147Z,100517.71
2023-05-14T08:15:24.011Z,100514.28
2023-05-14T08:17:55.863Z,100511.19
2023-05-14T08:20:27.489Z,100505.33
2023-05-14T08:22:57.031Z,100499.81
2023-05-14T08:25:28.336Z,100501.21
2023-05-14T08:27:59.894Z,100501.73
2023-05-14T08:30:30.744Z,100499.16
2023-05-14T08:33:01.349Z,100494.52
2023-05-14T08:35:31.915Z,100493.14
2023-05-14T08:38:02.350Z,100494.56
2023-05-14T08:40:33.022Z,100492.86
2023-05-14T08:43:03.646Z,100485.77
2023-05-14T08:45:36.323Z,100486.64
2023-05-14T08:48:11.254Z,100484.23
2023-05-14T08:50:42.114Z,100482.86
2023-05-14T08:53:12.599Z,100476.83
2023-05-14T08:55:44.079Z,100475.95
2023-05-14T08:58:14.605Z,100470.27
2023-05-14T09:00:45.266Z,100464.92
2023-05-14T09:03:16.749Z,100462.34
2023-05-14T09:05:49.318Z,100458.36
2023-05-14T09:08:20.655Z,100457.85
2023-05-14T09:10:51.565Z,100454.24
2023-05-14T09:13:22.135Z,100455.08
2023-05-14T09:15:53.915Z,100452.66
2023-05-14T09:18:23.163Z,100447.66
2023-05-14T09:20:54.271Z,100450.42
2023-05-14T09:23:26.696Z,100447.84
2023-05-14T09:25:57.213Z,100446.46
2023-05-14T09:28:28.752Z,100438.34
2023-05-14T09:30:59.231Z,100436.60
2023-05-14T09:33:31.187Z,100434.17
2023-05-14T09:36:05.745Z,100433.67
2023-05-14T09:38:36.701Z,100427.27
2023-05-14T09:41:07.302Z,100419.85
2023-05-14T09:43:37.804Z,100417.09
2023-05-14T09:46:08.436Z,100411.91
2023-05-14T09:48:38.975Z,100411.21
2023-05-14T09:51:11.178Z,100407.56
2023-05-14T09:53:42.927Z,100402.56
2023-05-14T09:56:11.915Z,100402.55
2023-05-14T09:58:42.537Z,100403.39
2023-05-14T10:01:13.861Z,100404.59
2023-05-14T10:03:44.413Z,100397.84
2023-05-14T10:06:17.582Z,100396.99
2023-05-14T10:08:50.822Z,100391.27
2023-05-14T10:11:26.308Z,100385.02
2023-05-14T10:14:02.857Z,100385.87
2023-05-14T10:16:35.479Z,100382.20
2023-05-14T10:19:09.930Z,100387.04
2023-05-14T10:21:42.328Z,100386.17
2023-05-14T10:24:13.915Z,100384.61
2023-05-14T10:26:44.662Z,100374.75
2023-05-14T10:29:15.706Z,100374.20
2023-05-14T10:31:53.782Z,100376.44
2023-05-14T10:34:40.898Z,100373.65
2023-05-14T10:37:13.375Z,100366.69
2023-05-14T10:39:45.358Z,100358.20
2023-05-14T10:42:18.456Z,100357.30
2023-05-14T10:44:56.031Z,100357.30
2023-05-14T10:47:27.357Z,100354.00
2023-05-14T10:49:59.351Z,100353.48
2023-05-14T10:52:29.948Z,100351.05
2023-05-14T10:55:03.447Z,100348.77
2023-05-14T10:57:37.377Z,100349.60
2023-05-14T11:00:10.823Z,100345.04
2023-05-14T11:02:42.949Z,100341.04
2023-05-14T11:05:17.090Z,100342.74
2023-05-14T11:07:50.046Z,100335.62
2023-05-14T11:10:22.434Z,100332.29
2023-05-14T11:12:53.778Z,100328.97
2023-05-14T11:15:26.462Z,100321.67
2023-05-14T11:17:57.659Z,100325.25
2023-05-14T11:20:28.153Z,100321.05
2023-05-14T11:22:58.591Z,100324.30
2023-05-14T11:25:29.248Z,100325.65
2023-05-14T11:28:00.966Z,100322.14
2023-05-14T11:30:32.377Z,100315.52
2023-05-14T11:33:03.593Z,100315.84
2023-05-14T11:35:34.398Z,100311.69
2023-05-14T11:38:05.687Z,100315.98
2023-05-14T11:40:37.336Z,100314.73
2023-05-14T11:43:08.396Z,100314.15
2023-05-14T11:45:38.969Z,100310.11
2023-05-14T11:48:15.988Z,100308.65
2023-05-14T11:50:49.977Z,100302.86
2023-05-14T11:53:21.644Z,100292.95
2023-05-14T11:55:50.592Z,100289.09
2023-05-14T11:58:21.990Z,100283.88
2023-05-14T12:00:54.847Z,100283.66
2023-05-14T12:03:26.993Z,100282.59
2023-05-14T12:06:02.121Z,100277.18
2023-05-14T12:08:39.517Z,100274.02
2023-05-14T12:11:11.358Z,100276.48
2023-05-14T12:13:43.025Z,100281.30
2023-05-14T12:16:11.968Z,100276.91
2023-05-14T12:18:42.550Z,100271.48
2023-05-14T12:21:13.376Z,100272.78
2023-05-14T12:23:43.998Z,100271.16
2023-05-14T12:26:14.976Z,100270.03
2023-05-14T12:28:49.036Z,100263.54
2023-05-14T12:31:19.914Z,100264.82
2023-05-14T12:33:50.381Z,100256.38
2023-05-14T12:36:22.275Z,100258.05
2023-05-14T12:38:59.102Z,100256.91
2023-05-14T12:41:29.678Z,100252.51
2023-05-14T12:44:00.891Z,100256.27
2023-05-14T12:46:31.838Z,100249.95
2023-05-14T12:49:02.375Z,100249.70
2023-05-14T12:51:32.840Z,100244.41
2023-05-14T12:54:03.307Z,100237.73
2023-05-14T12:56:33.801Z,100239.73
2023-05-14T12:59:04.624Z,100240.11
2023-05-14T13:01:35.164Z,100238.09
2023-05-14T13:04:06.373Z,100235.70
2023-05-14T13:06:37.630Z,100229.50
2023-05-14T13:09:08.843Z,100229.60
2023-05-14T13:11:39.294Z,100225.89
2023-05-14T13:14:10.088Z,100221.63
2023-05-14T13:16:40.644Z,100224.70
2023-05-14T13:19:11.233Z,100222.94
2023-05-14T13:21:41.870Z,100219.42
2023-05-14T13:24:12.570Z,100215.88
2023-05-14T13:26:44.573Z,100216.55
2023-05-14T13:29:15.009Z,100213.58
2023-05-14T13:31:45.720Z,100206.92
2023-05-14T13:34:16.421Z,100215.38
2023-05-14T13:36:47.281Z,100203.85
2023-05-14T13:39:18.041Z,100206.06
2023-05-14T13:41:48.527Z,100205.52
2023-05-14T13:44:18.973Z,100199.09
2023-05-14T13:46:49.616Z,100195.79
2023-05-14T13:49:20.335Z,100199.92
2023-05-14T13:51:50.862Z,100197.40
2023-05-14T13:54:21.388Z,100193.54
2023-05-14T13:56:52.174Z,100193.67
2023-05-14T13:59:24.023Z,100190.34
2023-05-14T14:01:54.556Z,100184.73
2023-05-14T14:04:29.057Z,100186.27
2023-05-14T14:06:59.631Z,100186.55
2023-05-14T14:09:35.099Z,100182.17
2023-05-14T14:12:06.242Z,100186.01
2023-05-14T14:14:36.792Z,100182.39
2023-05-14T14:17:09.100Z,100183.52
2023-05-14T14:19:39.583Z,100179.58
2023-05-14T14:22:10.133Z,100184.69
2023-05-14T14:24:41.058Z,100184.58
2023-05-14T14:27:11.829Z,100182.58
2023-05-14T14:29:42.310Z,100178.64
2023-05-14T14:32:12.804Z,100176.80
2023-05-14T14:34:43.307Z,100177.60
2023-05-14T14:37:13.791Z,100172.77
2023-05-14T14:39:44.272Z,100170.08
2023-05-14T14:42:14.716Z,100166.66
2023-05-14T14:44:45.166Z,100165.87
2023-05-14T14:47:15.656Z,100170.46
2023-05-14T14:49:46.118Z,100173.10
2023-05-14T14:52:16.593Z,100168.98
2023-05-14T14:54:47.050Z,100168.66
2023-05-14T14:57:17.596Z,100164.73
2023-05-14T14:59:48.116Z,100167.90
2023-05-14T15:02:18.732Z,100164.84
2023-05-14T15:04:49.441Z,100160.58
2023-05-14T15:07:20.643Z,100159.39
2023-05-14T15:09:51.127Z,100162.19
2023-05-14T15:12:21.576Z,100156.84
2023-05-14T15:14:52.045Z,100152.90
2023-05-14T15:17:22.834Z,100150.39
2023-05-14T15:19:53.347Z,100149.55
2023-05-14T15:22:23.988Z,100146.29
2023-05-14T15:24:54.502Z,100144.08
2023-05-14T15:27:24.936Z,100143.05
2023-05-14T15:29:55.504Z,100135.77
2023-05-14T15:32:28.385Z,100135.64
2023-05-14T15:34:59.696Z,100134.96
2023-05-14T15:37:37.537Z,100132.17
2023-05-14T15:40:10.359Z,100130.45
2023-05-14T15:42:43.608Z,100129.77
2023-05-14T15:45:15.562Z,100119.52
2023-05-14T15:47:46.054Z,100117.30
2023-05-14T15:50:16.644Z,100112.99
2023-05-14T15:52:47.182Z,100108.86
2023-05-14T15:55:17.669Z,100109.07
2023-05-14T15:57:48.118Z,100106.32
2023-05-14T16:00:19.832Z,100108.94
2023-05-14T16:02:50.526Z,100109.30
2023-05-14T16:05:21.393Z,100108.80
2023-05-14T16:07:52.007Z,100106.38
2023-05-14T16:10:23.108Z,100105.38
2023-05-14T16:12:53.931Z,100100.22
2023-05-14T16:15:24.435Z,100098.88
2023-05-14T16:17:55.034Z,100095.44
2023-05-14T16:20:35.833Z,100097.20
2023-05-14T16:23:31.325Z,100092.88
2023-05-14T16:26:01.888Z,100090.29
2023-05-14T16:28:32.396Z,100090.33
2023-05-14T16:31:03.800Z,100088.61
2023-05-14T16:33:33.150Z,100085.17
2023-05-14T16:36:04.046Z,100081.20
2023-05-14T16:38:36.814Z,100077.25
2023-05-14T16:41:10.003Z,100074.33
2023-05-14T16:43:40.490Z,100072.67
2023-05-14T16:46:11.617Z,100071.48
2023-05-14T16:48:42.916Z,100076.02
2023-05-14T16:51:14.528Z,100077.44
2023-05-14T16:53:45.021Z,100083.86
2023-05-14T16:56:15.748Z,100082.66
2023-05-14T16:58:46.227Z,100089.65
2023-05-14T17:01:16.804Z,100085.88
2023-05-14T17:03:47.305Z,100080.52
2023-05-14T17:06:17.804Z,100079.33
2023-05-14T17:08:48.274Z,100074.14
2023-05-14T17:11:18.718Z,100080.06
2023-05-14T17:13:49.250Z,100081.30
2023-05-14T17:16:22.019Z,100080.63
2023-05-14T17:18:52.919Z,100081.87
2023-05-14T17:21:23.826Z,100083.27
2023-05-14T17:23:54.422Z,100085.70
2023-05-14T17:26:26.414Z,100082.77
2023-05-14T17:28:57.037Z,100078.10
2023-05-14T17:31:27.640Z,100078.46
2023-05-14T17:33:58.917Z,100080.04
2023-05-14T17:36:29.452Z,100078.33
2023-05-14T17:38:59.996Z,100073.50
2023-05-14T17:41:30.504Z,100070.60
2023-05-14T17:44:00.988Z,100069.23
2023-05-14T17:46:31.543Z,100064.75
2023-05-14T17:49:02.299Z,100063.38
2023-05-14T17:51:32.834Z,100067.04
2023-05-14T17:54:04.571Z,100068.13
2023-05-14T17:56:35.333Z,100068.35
2023-05-14T17:59:05.861Z,100069.26
2023-05-14T18:01:36.392Z,100071.20
2023-05-14T18:04:07.189Z,100067.77
2023-05-14T18:06:38.217Z,100066.77
2023-05-14T18:09:09.673Z,100066.63
2023-05-14T18:11:40.136Z,100066.80
2023-05-14T18:14:10.596Z,100069.58
2023-05-14T18:16:41.174Z,100061.96
2023-05-14T18:19:11.878Z,100056.94
2023-05-14T18:21:42.877Z,100050.36
2023-05-14T18:24:13.346Z,100052.63
2023-05-14T18:26:43.914Z,100050.58
2023-05-14T18:29:14.568Z,100053.03
2023-05-14T18:31:45.036Z,100050.13
2023-05-14T18:34:15.581Z,100052.23
2023-05-14T18:36:46.004Z,100047.37
2023-05-14T18:39:16.685Z,100042.02
2023-05-14T18:41:47.147Z,100039.92
2023-05-14T18:44:17.659Z,100041.67
2023-05-14T18:46:48.316Z,100039.64
2023-05-14T18:49:19.129Z,100040.73
2023-05-14T18:51:49.662Z,100042.31
2023-05-14T18:54:20.131Z,100042.34
2023-05-14T18:56:50.611Z,100039.98
2023-05-14T18:59:21.042Z,100045.58
2023-05-14T19:01:51.730Z,100040.30
2023-05-14T19:04:22.939Z,100041.27
2023-05-14T19:06:53.552Z,100040.36
2023-05-14T19:09:25.516Z,100042.19
2023-05-14T19:11:57.152Z,100048.48
2023-05-14T19:14:27.678Z,100053.77
2023-05-14T19:16:58.944Z,100052.13
2023-05-14T19:19:29.484Z,100050.11
2023-05-14T19:21:59.905Z,100049.80
2023-05-14T19:24:30.418Z,100047.40
2023-05-14T19:27:00.868Z,100043.98
2023-05-14T19:29:32.417Z,100032.21
2023-05-14T19:32:02.992Z,100030.16
2023-05-14T19:34:33.669Z,100032.23
2023-05-14T19:37:04.799Z,100041.05
2023-05-14T19:39:35.319Z,100051.11
2023-05-14T19:42:06.490Z,100054.27
2023-05-14T19:44:36.980Z,100063.63
2023-05-14T19:47:08.433Z,100071.25
2023-05-14T19:49:39.100Z,100074.02
2023-05-14T19:52:11.324Z,100076.27
2023-05-14T19:54:41.769Z,100071.77
2023-05-14T19:57:13.087Z,100037.13
2023-05-14T19:59:44.507Z,100005.05
2023-05-14T20:02:18.260Z,99986.72
2023-05-14T20:04:49.549Z,99981.90
2023-05-14T20:07:20.293Z,99980.55
2023-05-14T20:09:50.754Z,99984.24
2023-05-14T20:12:21.562Z,99983.08
2023-05-14T20:14:52.020Z,99981.37
2023-05-14T20:17:22.988Z,99983.13
2023-05-14T20:19:53.534Z,99988.87
2023-05-14T20:22:24.042Z,99992.54
2023-05-14T20:24:54.492Z,99991.69
2023-05-14T20:27:25.158Z,99991.71
2023-05-14T20:29:55.621Z,99991.04
2023-05-14T20:32:26.159Z,99988.63
2023-05-14T20:35:01.866Z,99981.55
2023-05-14T20:37:33.386Z,99975.02
2023-05-14T20:40:06.131Z,99963.78
2023-05-14T20:42:36.647Z,99959.31
2023-05-14T20:45:09.034Z,99958.51
2023-05-14T20:47:39.542Z,99962.36
2023-05-14T20:50:12.396Z,99960.86
2023-05-14T20:52:42.864Z,99955.71
2023-05-14T20:55:13.804Z,99957.98
2023-05-14T20:57:44.252Z,99955.93
2023-05-14T21:00:16.663Z,99954.25
2023-05-14T21:02:49.340Z,99948.22
2023-05-14T21:05:20.820Z,99946.67
2023-05-14T21:07:51.341Z,99944.27
2023-05-14T21:10:21.854Z,99948.59
2023-05-14T21:12:52.413Z,99947.73
2023-05-14T21:15:23.317Z,99941.72
2023-05-14T21:17:54.290Z,99934.63
2023-05-14T21:20:25.018Z,99933.27
2023-05-14T21:22:55.474Z,99935.19
2023-05-14T21:25:26.513Z,99943.30
2023-05-14T21:27:57.503Z,99959.73
2023-05-14T21:30:28.087Z,99976.55
2023-05-14T21:32:58.676Z,99997.13
2023-05-14T21:35:29.315Z,100003.02
2023-05-14T21:37:59.812Z,99998.00
2023-05-14T21:40:30.334Z,99996.80
2023-05-14T21:43:01.009Z,99993.34
2023-05-14T21:45:31.545Z,99988.85
2023-05-14T21:48:02.128Z,99982.33
2023-05-14T21:50:32.667Z,99986.33
2023-05-14T21:53:03.744Z,99982.37
2023-05-14T21:55:34.379Z,99977.71
2023-05-14T21:58:05.170Z,99978.39
2023-05-14T22:00:35.710Z,99969.93
2023-05-14T22:03:06.534Z,99965.78
2023-05-14T22:05:37.024Z,99963.71
2023-05-14T22:08:08.081Z,99961.15
2023-05-14T22:10:38.653Z,99955.82
2023-05-14T22:13:09.134Z,99953.41
2023-05-14T22:15:40.297Z,99944.60
2023-05-14T22:18:12.925Z,99938.39
2023-05-14T22:20:44.182Z,99931.84
2023-05-14T22:23:14.683Z,99925.81
2023-05-14T22:25:47.609Z,99918.95
2023-05-14T22:28:18.050Z,99916.54
2023-05-14T22:30:48.538Z,99917.25
2023-05-14T22:33:20.163Z,99908.84
2023-05-14T22:35:50.603Z,99905.23
2023-05-14T22:38:21.267Z,99899.36
2023-05-14T22:40:51.671Z,99897.14
2023-05-14T22:43:22.229Z,99891.77
2023-05-14T22:45:52.716Z,99891.76
2023-05-14T22:48:23.894Z,99890.20
2023-05-14T22:50:54.370Z,99890.03
2023-05-14T22:53:25.338Z,99884.50
2023-05-14T22:55:56.015Z,99880.53
2023-05-14T22:58:26.633Z,99879.67
2023-05-14T23:00:57.461Z,99875.91
2023-05-14T23:03:28.003Z,99876.63
2023-05-14T23:05:58.429Z,99876.29
2023-05-14T23:08:28.959Z,99873.36
2023-05-14T23:10:59.404Z,99864.39
2023-05-14T23:13:30.021Z,99862.70
2023-05-14T23:16:00.656Z,99854.27
2023-05-14T23:18:31.710Z,99852.56
2023-05-14T23:21:02.337Z,99849.83
2023-05-14T23:23:32.963Z,99845.02
2023-05-14T23:26:03.862Z,99842.44
2023-05-14T23:28:34.495Z,99842.45
2023-05-14T23:31:05.043Z,99837.98
2023-05-14T23:33:36.000Z,99837.46
2023-05-14T23:36:07.708Z,99834.69
2023-05-14T23:38:38.281Z,99831.06
2023-05-14T23:41:08.735Z,99823.48
2023-05-14T23:43:39.237Z,99823.83
2023-05-14T23:46:09.980Z,99817.46
2023-05-14T23:48:40.503Z,99812.65
2023-05-14T23:51:10.937Z,99808.16
2023-05-14T23:53:41.355Z,99798.51
2023-05-14T23:56:11.968Z,99787.80
2023-05-14T23:58:42.616Z,99783.48
